createdAt,value
2023-03-28T00:08:01.087Z,77.32
2023-03-28T00:18:08.301Z,77.56
2023-03-28T00:28:14.335Z,78.00
2023-03-28T00:38:20.037Z,78.43
2023-03-28T00:48:26.011Z,78.70
2023-03-28T00:58:36.609Z,79.00
2023-03-28T01:08:46.359Z,79.42
2023-03-28T01:18:53.373Z,79.74
2023-03-28T01:29:39.214Z,79.84
2023-03-28T01:40:00.962Z,79.95
2023-03-28T01:50:14.950Z,80.36
2023-03-28T02:00:26.818Z,80.16
2023-03-28T02:10:34.621Z,79.70
2023-03-28T02:20:41.600Z,79.06
2023-03-28T02:30:47.638Z,78.79
2023-03-28T02:41:05.379Z,78.77
2023-03-28T02:51:23.698Z,78.42
2023-03-28T03:01:30.258Z,78.32
2023-03-28T03:11:36.500Z,78.33
2023-03-28T03:21:42.578Z,78.50
2023-03-28T03:31:48.480Z,79.40
2023-03-28T03:41:54.773Z,80.07
2023-03-28T03:52:01.283Z,80.81
2023-03-28T04:02:07.200Z,81.31
2023-03-28T04:12:14.334Z,81.85
2023-03-28T04:22:36.014Z,82.23
2023-03-28T04:32:50.590Z,82.92
2023-03-28T04:42:56.733Z,83.58
2023-03-28T04:53:02.831Z,84.22
2023-03-28T05:03:14.594Z,84.65
2023-03-28T05:13:21.154Z,84.32
2023-03-28T05:23:27.415Z,83.93
2023-03-28T05:33:33.328Z,82.93
2023-03-28T05:43:39.659Z,82.27
2023-03-28T05:53:45.699Z,81.53
2023-03-28T06:03:52.400Z,80.78
2023-03-28T06:13:58.362Z,79.87
2023-03-28T06:24:04.271Z,79.28
2023-03-28T06:34:10.428Z,79.56
2023-03-28T06:44:16.414Z,80.06
2023-03-28T06:54:23.060Z,79.78
2023-03-28T07:04:30.143Z,80.16
2023-03-28T07:14:36.653Z,80.81
2023-03-28T07:24:41.360Z,80.27
2023-03-28T07:34:47.761Z,80.52
2023-03-28T07:44:52.589Z,81.19
2023-03-28T07:54:58.621Z,82.31
2023-03-28T08:05:04.929Z,82.68
2023-03-28T08:15:12.836Z,80.63
2023-03-28T08:25:19.300Z,78.95
2023-03-28T08:35:25.384Z,79.07
2023-03-28T08:45:43.799Z,72.89
2023-03-28T08:55:53.467Z,68.08
2023-03-28T09:06:08.928Z,61.80
2023-03-28T09:16:33.372Z,61.02
2023-03-28T09:26:44.954Z,58.53
2023-03-28T09:36:55.517Z,57.08
2023-03-28T09:47:03.592Z,56.91
2023-03-28T09:57:09.706Z,56.22
2023-03-28T10:07:33.985Z,56.57
2023-03-28T10:17:41.591Z,56.43
2023-03-28T10:27:48.764Z,54.76
2023-03-28T10:37:58.231Z,55.30
2023-03-28T10:48:08.983Z,54.77
2023-03-28T10:58:21.980Z,55.39
2023-03-28T11:08:49.145Z,54.16
2023-03-28T11:19:00.297Z,54.32
2023-03-28T11:29:25.924Z,53.56
2023-03-28T11:39:44.969Z,54.28
2023-03-28T11:50:01.868Z,54.11
2023-03-28T12:00:33.280Z,53.71
2023-03-28T12:10:43.385Z,54.09
2023-03-28T12:21:00.714Z,53.86
2023-03-28T12:31:16.376Z,53.83
2023-03-28T12:41:26.104Z,53.17
2023-03-28T12:51:37.467Z,52.52
2023-03-28T13:01:51.586Z,55.13
2023-03-28T13:12:06.073Z,59.92
2023-03-28T13:22:29.138Z,60.68
2023-03-28T13:32:45.797Z,57.78
2023-03-28T13:43:01.270Z,59.02
2023-03-28T13:53:07.233Z,58.64
2023-03-28T14:03:16.642Z,58.09
2023-03-28T14:13:26.238Z,56.06
2023-03-28T14:23:39.074Z,56.41
2023-03-28T14:33:47.973Z,57.49
2023-03-28T14:44:08.360Z,58.43
2023-03-28T14:54:23.330Z,57.84
2023-03-28T15:04:30.711Z,58.54
2023-03-28T15:14:45.796Z,61.78
2023-03-28T15:24:54.418Z,62.58
2023-03-28T15:35:11.445Z,61.57
2023-03-28T15:45:41.117Z,61.40
2023-03-28T15:55:51.222Z,62.07
2023-03-28T16:06:30.647Z,61.61
2023-03-28T16:16:42.320Z,61.45
2023-03-28T16:27:08.311Z,61.42
2023-03-28T16:37:21.931Z,61.50
2023-03-28T16:47:47.840Z,61.38
2023-03-28T16:58:01.183Z,61.24
2023-03-28T17:08:27.047Z,60.17
2023-03-28T17:18:50.618Z,59.40
2023-03-28T17:28:58.541Z,58.65
2023-03-28T17:39:14.135Z,58.06
2023-03-28T17:49:39.862Z,57.79
2023-03-28T17:59:44.797Z,57.23
2023-03-28T18:10:11.581Z,56.57
2023-03-28T18:20:21.327Z,55.99
2023-03-28T18:30:48.732Z,55.87
2023-03-28T18:41:14.779Z,55.89
2023-03-28T18:51:21.892Z,55.51
2023-03-28T19:01:41.694Z,54.82
2023-03-28T19:12:08.945Z,54.26
2023-03-28T19:22:16.054Z,54.30
2023-03-28T19:32:41.831Z,53.79
2023-03-28T19:43:07.538Z,53.32
2023-03-28T19:53:33.512Z,53.59
2023-03-28T20:03:52.597Z,53.88
2023-03-28T20:14:21.539Z,54.08
2023-03-28T20:24:43.701Z,54.35
2023-03-28T20:35:11.094Z,54.95
2023-03-28T20:45:23.789Z,55.38
2023-03-28T20:55:50.416Z,55.91
2023-03-28T21:06:17.609Z,56.47
2023-03-28T21:16:44.142Z,56.82
2023-03-28T21:27:02.051Z,57.38
2023-03-28T21:37:26.381Z,58.10
2023-03-28T21:47:51.059Z,58.69
2023-03-28T21:58:15.719Z,59.23
2023-03-28T22:08:42.942Z,59.84
2023-03-28T22:19:11.389Z,60.67
2023-03-28T22:29:36.970Z,61.16
2023-03-28T22:40:01.152Z,61.79
2023-03-28T22:50:14.705Z,62.36
2023-03-28T23:00:40.671Z,63.09
2023-03-28T23:11:06.903Z,63.88
2023-03-28T23:21:13.188Z,64.38
2023-03-28T23:31:19.110Z,64.79
2023-03-28T23:41:24.916Z,65.39
2023-03-28T23:51:31.449Z,65.76
